createdAt,value
2017-11-16T00:01:49.849Z,8.20
2017-11-16T00:04:18.980Z,9.73
2017-11-16T00:06:47.282Z,8.53
2017-11-16T00:09:16.329Z,13.10
2017-11-16T00:11:44.581Z,9.43
2017-11-16T00:14:12.986Z,8.90
2017-11-16T00:16:41.239Z,9.03
2017-11-16T00:19:09.765Z,9.77
2017-11-16T00:21:38.039Z,8.30
2017-11-16T00:24:06.280Z,10.47
2017-11-16T00:26:34.762Z,9.30
2017-11-16T00:29:04.650Z,7.80
2017-11-16T00:31:33.649Z,8.03
2017-11-16T00:34:01.934Z,7.90
2017-11-16T00:36:30.203Z,10.10
2017-11-16T00:38:58.453Z,7.60
2017-11-16T00:41:26.748Z,8.37
2017-11-16T00:43:55.042Z,7.20
2017-11-16T00:46:23.478Z,7.53
2017-11-16T00:48:51.734Z,6.13
2017-11-16T00:51:20.020Z,8.80
2017-11-16T00:53:48.259Z,7.13
2017-11-16T00:56:16.553Z,7.33
2017-11-16T00:58:44.882Z,7.00
2017-11-16T01:01:13.128Z,7.70
2017-11-16T01:03:41.577Z,6.33
2017-11-16T01:06:09.829Z,10.17
2017-11-16T01:08:38.086Z,6.10
2017-11-16T01:11:07.304Z,6.40
2017-11-16T01:13:35.594Z,6.77
2017-11-16T01:16:03.848Z,6.07
2017-11-16T01:18:32.172Z,8.20
2017-11-16T01:21:00.422Z,5.73
2017-11-16T01:23:28.711Z,7.33
2017-11-16T01:25:57.299Z,5.60
2017-11-16T01:28:25.542Z,6.10
2017-11-16T01:30:53.809Z,5.80
2017-11-16T01:33:22.078Z,6.10
2017-11-16T01:35:51.650Z,5.10
2017-11-16T01:38:20.056Z,7.93
2017-11-16T01:40:49.162Z,5.10
2017-11-16T01:43:18.177Z,6.40
2017-11-16T01:45:46.439Z,5.80
2017-11-16T01:48:14.697Z,4.67
2017-11-16T01:50:43.189Z,5.87
2017-11-16T01:53:11.438Z,4.97
2017-11-16T01:55:40.576Z,6.73
2017-11-16T01:58:08.834Z,6.10
2017-11-16T02:00:37.123Z,5.67
2017-11-16T02:03:05.431Z,6.27
2017-11-16T02:05:33.700Z,6.30
2017-11-16T02:08:01.979Z,5.70
2017-11-16T02:10:31.213Z,8.00
2017-11-16T02:12:59.688Z,8.20
2017-11-16T02:15:28.016Z,6.60
2017-11-16T02:17:56.351Z,6.80
2017-11-16T02:20:24.663Z,5.60
2017-11-16T02:22:52.967Z,6.50
2017-11-16T02:25:21.345Z,6.97
2017-11-16T02:27:50.776Z,5.33
2017-11-16T02:30:20.701Z,5.43
2017-11-16T02:32:48.999Z,8.07
2017-11-16T02:35:17.466Z,6.80
2017-11-16T02:37:45.762Z,6.47
2017-11-16T02:40:14.081Z,7.10
2017-11-16T02:42:43.479Z,5.67
2017-11-16T02:45:12.001Z,7.20
2017-11-16T02:47:40.267Z,7.87
2017-11-16T02:50:08.571Z,6.67
2017-11-16T02:52:36.854Z,7.20
2017-11-16T02:55:05.135Z,7.63
2017-11-16T02:57:34.188Z,7.40
2017-11-16T03:00:03.117Z,7.10
2017-11-16T03:02:31.435Z,9.67
2017-11-16T03:04:59.758Z,12.53
2017-11-16T03:07:29.850Z,7.47
2017-11-16T03:09:58.248Z,6.33
2017-11-16T03:12:26.518Z,7.17
2017-11-16T03:14:54.769Z,8.57
2017-11-16T03:17:23.050Z,6.70
2017-11-16T03:19:51.347Z,7.43
2017-11-16T03:22:19.625Z,7.00
2017-11-16T03:24:47.906Z,8.17
2017-11-16T03:27:16.191Z,8.60
2017-11-16T03:29:44.451Z,8.57
2017-11-16T03:32:12.745Z,9.33
2017-11-16T03:34:41.060Z,7.73
2017-11-16T03:37:09.306Z,9.33
2017-11-16T03:39:37.595Z,9.13
2017-11-16T03:42:05.863Z,8.10
2017-11-16T03:44:34.204Z,8.93
2017-11-16T03:47:02.487Z,8.40
2017-11-16T03:49:30.787Z,9.07
2017-11-16T03:51:59.952Z,10.23
2017-11-16T03:54:28.271Z,8.63
2017-11-16T03:56:56.549Z,8.87
2017-11-16T03:59:24.986Z,9.97
2017-11-16T04:01:54.258Z,8.83
2017-11-16T04:04:22.486Z,9.60
2017-11-16T04:06:51.538Z,11.23
2017-11-16T04:09:20.579Z,9.43
2017-11-16T04:11:48.838Z,9.50
2017-11-16T04:14:17.126Z,10.97
2017-11-16T04:16:45.407Z,11.73
2017-11-16T04:19:13.691Z,14.03
2017-11-16T04:21:42.122Z,9.80
2017-11-16T04:24:10.373Z,10.50
2017-11-16T04:26:38.654Z,10.03
2017-11-16T04:29:06.930Z,11.13
2017-11-16T04:31:35.242Z,9.80
2017-11-16T04:34:03.638Z,11.63
2017-11-16T04:36:32.694Z,10.87
2017-11-16T04:39:00.973Z,14.83
2017-11-16T04:41:29.335Z,14.83
2017-11-16T04:43:57.611Z,13.10
2017-11-16T04:46:25.921Z,11.80
2017-11-16T04:48:54.163Z,12.50
2017-11-16T04:51:22.434Z,14.03
2017-11-16T04:53:50.724Z,12.57
2017-11-16T04:56:19.002Z,12.40
2017-11-16T04:58:47.283Z,14.83
2017-11-16T05:01:15.569Z,14.97
2017-11-16T05:03:43.838Z,18.93
2017-11-16T05:06:12.130Z,14.57
2017-11-16T05:08:40.429Z,13.30
2017-11-16T05:11:09.584Z,13.77
2017-11-16T05:13:37.847Z,12.20
2017-11-16T05:16:06.156Z,15.00
2017-11-16T05:18:35.175Z,12.80
2017-11-16T05:21:03.448Z,17.20
2017-11-16T05:23:32.726Z,15.73
2017-11-16T05:26:01.003Z,13.83
2017-11-16T05:28:29.302Z,15.27
2017-11-16T05:30:57.602Z,15.40
2017-11-16T05:33:25.855Z,15.17
2017-11-16T05:35:54.143Z,15.83
2017-11-16T05:38:22.497Z,14.10
2017-11-16T05:40:51.556Z,15.60
2017-11-16T05:43:19.779Z,14.50
2017-11-16T05:45:48.090Z,13.57
2017-11-16T05:48:16.342Z,14.07
2017-11-16T05:50:44.794Z,15.60
2017-11-16T05:53:13.928Z,18.27
2017-11-16T05:55:43.189Z,15.27
2017-11-16T05:58:11.512Z,13.43
2017-11-16T06:00:40.860Z,14.13
2017-11-16T06:03:09.221Z,17.50
2017-11-16T06:05:37.609Z,17.17
2017-11-16T06:08:05.991Z,16.10
2017-11-16T06:10:35.411Z,13.03
2017-11-16T06:13:03.713Z,18.20
2017-11-16T06:15:33.586Z,15.67
2017-11-16T06:18:02.376Z,19.60
2017-11-16T06:20:30.712Z,14.70
2017-11-16T06:22:58.981Z,17.07
2017-11-16T06:25:27.430Z,18.07
2017-11-16T06:27:55.737Z,14.70
2017-11-16T06:30:24.071Z,18.83
2017-11-16T06:32:52.318Z,15.50
2017-11-16T06:35:20.635Z,19.07
2017-11-16T06:37:48.898Z,21.30
2017-11-16T06:40:17.380Z,16.60
2017-11-16T06:42:45.630Z,14.47
2017-11-16T06:45:13.916Z,20.57
2017-11-16T06:47:42.257Z,21.47
2017-11-16T06:50:10.554Z,15.23
2017-11-16T06:52:39.047Z,16.83
2017-11-16T06:55:07.310Z,16.83
2017-11-16T06:57:35.611Z,19.07
2017-11-16T07:00:04.669Z,16.13
2017-11-16T07:02:33.017Z,17.70
2017-11-16T07:05:01.474Z,18.77
2017-11-16T07:07:29.730Z,21.73
2017-11-16T07:09:59.544Z,22.20
2017-11-16T07:12:27.798Z,22.73
2017-11-16T07:14:56.113Z,19.70
2017-11-16T07:17:24.493Z,16.70
2017-11-16T07:19:52.745Z,16.33
2017-11-16T07:22:21.154Z,16.20
2017-11-16T07:24:50.197Z,17.00
2017-11-16T07:27:18.523Z,18.10
2017-11-16T07:29:46.799Z,18.57
2017-11-16T07:32:16.629Z,19.50
2017-11-16T07:34:44.886Z,16.77
2017-11-16T07:37:13.174Z,17.90
2017-11-16T07:39:41.544Z,20.00
2017-11-16T07:42:12.590Z,15.60
2017-11-16T07:44:40.858Z,17.67
2017-11-16T07:47:09.920Z,22.63
2017-11-16T07:49:38.192Z,18.90
2017-11-16T07:52:06.551Z,19.33
2017-11-16T07:54:34.824Z,21.47
2017-11-16T07:57:03.106Z,17.57
2017-11-16T07:59:31.372Z,21.67
2017-11-16T08:01:59.639Z,18.13
2017-11-16T08:04:27.931Z,18.23
2017-11-16T08:06:57.047Z,17.60
2017-11-16T08:09:25.333Z,14.07
2017-11-16T08:11:53.598Z,17.03
2017-11-16T08:14:22.885Z,15.87
2017-11-16T08:16:51.150Z,17.43
2017-11-16T08:19:19.452Z,14.27
2017-11-16T08:21:47.721Z,23.40
2017-11-16T08:24:16.074Z,15.57
2017-11-16T08:26:44.340Z,16.70
2017-11-16T08:29:12.629Z,17.87
2017-11-16T08:31:40.892Z,15.97
2017-11-16T08:34:09.176Z,19.20
2017-11-16T08:36:37.447Z,19.53
2017-11-16T08:39:05.740Z,23.30
2017-11-16T08:41:34.183Z,19.57
2017-11-16T08:44:03.291Z,18.23
2017-11-16T08:46:31.571Z,16.60
2017-11-16T08:49:00.650Z,22.40
2017-11-16T08:51:28.959Z,18.33
2017-11-16T08:53:57.225Z,18.23
2017-11-16T08:56:25.738Z,20.80
2017-11-16T08:58:54.006Z,19.17
2017-11-16T09:01:22.289Z,17.67
2017-11-16T09:03:50.621Z,16.97
2017-11-16T09:06:18.901Z,20.40
2017-11-16T09:08:47.521Z,19.37
2017-11-16T09:11:15.852Z,18.20
2017-11-16T09:13:44.232Z,18.00
2017-11-16T09:16:13.337Z,22.50
2017-11-16T09:18:41.810Z,68.90
2017-11-16T09:21:10.130Z,22.03
2017-11-16T09:23:38.882Z,23.40
2017-11-16T09:26:07.963Z,23.97
2017-11-16T09:28:37.021Z,24.00
2017-11-16T09:31:05.309Z,25.03
2017-11-16T09:33:34.637Z,18.27
2017-11-16T09:36:02.932Z,19.83
2017-11-16T09:38:31.995Z,13.80
2017-11-16T09:41:00.298Z,20.53
2017-11-16T09:43:29.403Z,19.53
2017-11-16T09:45:58.435Z,20.53
2017-11-16T09:48:26.726Z,18.10
2017-11-16T09:50:54.987Z,19.13
2017-11-16T09:53:23.287Z,21.77
2017-11-16T09:55:51.689Z,22.63
2017-11-16T09:58:19.967Z,18.17
2017-11-16T10:00:49.229Z,21.60
2017-11-16T10:03:18.450Z,17.40
2017-11-16T10:05:46.710Z,20.70
2017-11-16T10:08:16.715Z,21.77
2017-11-16T10:10:44.961Z,24.40
2017-11-16T10:13:13.215Z,20.17
2017-11-16T10:15:42.282Z,25.50
2017-11-16T10:18:10.589Z,24.40
2017-11-16T10:20:38.822Z,18.33
2017-11-16T10:23:07.140Z,23.10
2017-11-16T10:25:35.383Z,19.73
2017-11-16T10:28:03.649Z,18.70
2017-11-16T10:30:32.061Z,22.17
2017-11-16T10:33:00.303Z,22.10
2017-11-16T10:35:28.573Z,20.13
2017-11-16T10:37:56.919Z,22.27
2017-11-16T10:40:25.195Z,24.13
2017-11-16T10:42:53.461Z,22.83
2017-11-16T10:45:21.894Z,22.53
2017-11-16T10:47:50.174Z,24.40
2017-11-16T10:50:19.704Z,18.07
2017-11-16T10:52:48.310Z,21.40
2017-11-16T10:55:16.596Z,22.50
2017-11-16T10:57:44.877Z,21.13
2017-11-16T11:00:13.162Z,22.30
2017-11-16T11:02:41.423Z,22.67
2017-11-16T11:05:09.735Z,22.60
2017-11-16T11:07:38.008Z,18.27
2017-11-16T11:10:06.526Z,19.60
2017-11-16T11:12:37.042Z,18.10
2017-11-16T11:15:05.299Z,17.90
2017-11-16T11:17:34.554Z,22.80
2017-11-16T11:20:03.614Z,20.77
2017-11-16T11:22:31.951Z,19.17
2017-11-16T11:25:00.212Z,16.47
2017-11-16T11:27:28.489Z,18.70
2017-11-16T11:29:56.780Z,18.97
2017-11-16T11:32:25.094Z,20.90
2017-11-16T11:34:53.387Z,21.17
2017-11-16T11:37:21.709Z,18.30
2017-11-16T11:39:50.163Z,19.37
2017-11-16T11:42:18.418Z,19.00
2017-11-16T11:44:46.819Z,21.10
2017-11-16T11:47:15.862Z,19.60
2017-11-16T11:49:45.771Z,18.23
2017-11-16T11:52:14.040Z,21.83
2017-11-16T11:54:42.322Z,18.70
2017-11-16T11:57:10.621Z,16.70
2017-11-16T11:59:38.888Z,21.53
2017-11-16T12:02:07.158Z,13.37
2017-11-16T12:04:36.445Z,16.40
2017-11-16T12:07:04.694Z,18.53
2017-11-16T12:09:33.187Z,14.67
2017-11-16T12:12:01.488Z,18.97
2017-11-16T12:14:29.899Z,15.37
2017-11-16T12:16:58.157Z,17.10
2017-11-16T12:19:26.530Z,16.33
2017-11-16T12:21:54.795Z,15.33
2017-11-16T12:24:23.945Z,12.93
2017-11-16T12:26:52.231Z,15.90
2017-11-16T12:29:21.260Z,16.20
2017-11-16T12:31:49.599Z,16.47
2017-11-16T12:34:18.667Z,17.30
2017-11-16T12:36:47.510Z,16.90
2017-11-16T12:39:15.824Z,17.00
2017-11-16T12:41:44.119Z,15.93
2017-11-16T12:44:14.135Z,16.17
2017-11-16T12:46:44.140Z,17.00
2017-11-16T12:49:13.284Z,17.43
2017-11-16T12:51:41.550Z,15.50
2017-11-16T12:54:09.853Z,16.17
2017-11-16T12:56:38.222Z,15.73
2017-11-16T12:59:06.483Z,14.80
2017-11-16T13:01:34.762Z,18.50
2017-11-16T13:04:03.219Z,20.00
2017-11-16T13:06:31.691Z,14.00
2017-11-16T13:09:00.674Z,16.30
2017-11-16T13:11:29.985Z,14.00
2017-11-16T13:14:00.271Z,17.63
2017-11-16T13:16:28.552Z,20.23
2017-11-16T13:18:56.873Z,15.80
2017-11-16T13:21:25.912Z,16.47
2017-11-16T13:23:54.188Z,18.90
2017-11-16T13:26:22.491Z,18.70
2017-11-16T13:28:50.888Z,16.83
2017-11-16T13:31:19.137Z,15.93
2017-11-16T13:33:48.227Z,14.17
2017-11-16T13:36:18.031Z,16.70
2017-11-16T13:38:46.290Z,14.87
2017-11-16T13:41:14.587Z,15.00
2017-11-16T13:43:42.861Z,15.20
2017-11-16T13:46:11.147Z,14.70
2017-11-16T13:48:39.558Z,13.50
2017-11-16T13:51:07.831Z,17.20
2017-11-16T13:53:36.069Z,16.80
2017-11-16T13:56:04.386Z,19.47
2017-11-16T13:58:32.643Z,14.80
2017-11-16T14:01:00.950Z,15.30
2017-11-16T14:03:29.246Z,18.80
2017-11-16T14:05:57.513Z,19.00
2017-11-16T14:08:25.890Z,22.43
2017-11-16T14:10:54.940Z,18.20
2017-11-16T14:13:23.238Z,14.87
2017-11-16T14:15:52.275Z,14.43
2017-11-16T14:18:22.741Z,15.87
2017-11-16T14:20:51.002Z,13.23
2017-11-16T14:23:19.314Z,15.10
2017-11-16T14:25:47.596Z,13.30
2017-11-16T14:28:15.928Z,12.60
2017-11-16T14:30:44.200Z,13.20
2017-11-16T14:33:13.347Z,13.80
2017-11-16T14:35:41.620Z,13.60
2017-11-16T14:38:10.674Z,14.70
2017-11-16T14:40:39.981Z,13.07
2017-11-16T14:43:08.280Z,12.57
2017-11-16T14:45:36.534Z,15.00
2017-11-16T14:48:04.807Z,13.97
2017-11-16T14:50:33.949Z,11.73
2017-11-16T14:53:02.991Z,13.27
2017-11-16T14:55:31.259Z,16.57
2017-11-16T14:57:59.553Z,11.53
2017-11-16T15:00:27.796Z,12.20
2017-11-16T15:02:56.107Z,12.77
2017-11-16T15:05:24.409Z,12.80
2017-11-16T15:07:52.670Z,15.50
2017-11-16T15:10:20.935Z,11.50
2017-11-16T15:12:49.260Z,15.93
2017-11-16T15:15:18.286Z,17.13
2017-11-16T15:17:46.550Z,13.73
2017-11-16T15:20:14.844Z,17.20
2017-11-16T15:22:43.994Z,14.47
2017-11-16T15:25:12.260Z,16.83
2017-11-16T15:27:40.578Z,13.20
2017-11-16T15:30:08.863Z,13.70
2017-11-16T15:32:38.821Z,13.70
2017-11-16T15:35:07.116Z,20.00
2017-11-16T15:37:36.153Z,16.90
2017-11-16T15:40:04.443Z,15.37
2017-11-16T15:42:32.967Z,14.65
2017-11-16T15:45:01.231Z,13.90
2017-11-16T15:47:29.507Z,13.63
2017-11-16T15:49:57.775Z,13.60
2017-11-16T15:52:26.171Z,15.00
2017-11-16T15:54:54.489Z,13.97
2017-11-16T15:57:22.807Z,12.13
2017-11-16T15:59:51.051Z,18.70
2017-11-16T16:02:19.380Z,17.63
2017-11-16T16:04:47.638Z,13.10
2017-11-16T16:07:15.998Z,14.10
2017-11-16T16:09:44.308Z,15.70
2017-11-16T16:12:13.012Z,13.97
2017-11-16T16:14:41.292Z,14.03
2017-11-16T16:17:09.580Z,13.63
2017-11-16T16:19:37.907Z,13.43
2017-11-16T16:22:07.962Z,18.07
2017-11-16T16:24:36.626Z,15.93
2017-11-16T16:27:04.966Z,16.43
2017-11-16T16:29:33.462Z,14.73
2017-11-16T16:32:02.690Z,14.07
2017-11-16T16:34:31.786Z,13.40
2017-11-16T16:37:00.066Z,16.77
2017-11-16T16:39:28.344Z,11.83
2017-11-16T16:41:56.652Z,13.67
2017-11-16T16:44:24.967Z,10.90
2017-11-16T16:46:53.221Z,12.67
2017-11-16T16:49:22.263Z,13.20
2017-11-16T16:51:50.550Z,14.57
2017-11-16T16:54:18.837Z,13.80
2017-11-16T16:56:47.123Z,16.23
2017-11-16T16:59:16.979Z,14.40
2017-11-16T17:01:45.318Z,12.50
2017-11-16T17:04:14.286Z,15.97
2017-11-16T17:06:42.607Z,17.17
2017-11-16T17:09:11.850Z,12.30
2017-11-16T17:11:50.111Z,14.07
2017-11-16T17:14:19.322Z,15.57
2017-11-16T17:16:48.520Z,14.03
2017-11-16T17:19:16.836Z,15.03
2017-11-16T17:21:45.110Z,14.90
2017-11-16T17:24:13.404Z,15.97
2017-11-16T17:26:41.894Z,16.07
2017-11-16T17:29:10.303Z,15.10
2017-11-16T17:31:38.628Z,15.93
2017-11-16T17:34:06.903Z,19.90
2017-11-16T17:36:35.380Z,17.13
2017-11-16T17:39:03.636Z,19.97
2017-11-16T17:41:32.015Z,19.43
2017-11-16T17:44:00.279Z,18.83
2017-11-16T17:46:28.616Z,23.00
2017-11-16T17:48:57.645Z,22.93
2017-11-16T17:51:25.922Z,20.63
2017-11-16T17:53:54.238Z,20.20
2017-11-16T17:56:22.469Z,18.00
2017-11-16T17:58:50.730Z,19.20
2017-11-16T18:01:19.038Z,21.40
2017-11-16T18:03:47.305Z,19.33
2017-11-16T18:06:15.720Z,22.30
2017-11-16T18:08:43.944Z,19.30
2017-11-16T18:11:12.258Z,21.23
2017-11-16T18:13:40.580Z,19.63
2017-11-16T18:16:09.819Z,21.10
2017-11-16T18:18:38.126Z,23.53
2017-11-16T18:21:06.416Z,17.20
2017-11-16T18:23:34.693Z,23.37
2017-11-16T18:26:02.990Z,17.70
2017-11-16T18:28:31.295Z,17.47
2017-11-16T18:30:59.606Z,20.20
2017-11-16T18:33:27.908Z,18.50
2017-11-16T18:35:56.961Z,17.70
2017-11-16T18:38:25.280Z,19.80
2017-11-16T18:40:54.348Z,23.63
2017-11-16T18:43:22.610Z,22.10
2017-11-16T18:45:50.878Z,15.70
2017-11-16T18:48:19.964Z,20.00
2017-11-16T18:50:48.279Z,23.03
2017-11-16T18:53:17.341Z,22.57
2017-11-16T18:55:46.673Z,23.03
2017-11-16T18:58:14.938Z,24.00
2017-11-16T19:00:43.251Z,19.20
2017-11-16T19:03:13.348Z,21.37
2017-11-16T19:05:41.884Z,22.63
2017-11-16T19:08:11.810Z,19.93
2017-11-16T19:10:41.041Z,20.47
2017-11-16T19:13:10.020Z,20.07
2017-11-16T19:15:38.408Z,19.97
2017-11-16T19:18:06.651Z,22.70
2017-11-16T19:20:34.930Z,19.63
2017-11-16T19:23:03.443Z,22.17
2017-11-16T19:25:32.467Z,20.97
2017-11-16T19:28:01.542Z,21.10
2017-11-16T19:30:29.910Z,22.40
2017-11-16T19:32:58.389Z,28.60
2017-11-16T19:35:26.734Z,22.77
2017-11-16T19:37:55.003Z,23.50
2017-11-16T19:40:23.366Z,22.50
2017-11-16T19:42:52.710Z,21.57
2017-11-16T19:45:21.000Z,26.73
2017-11-16T19:47:49.304Z,25.67
2017-11-16T19:50:17.617Z,25.53
2017-11-16T19:52:45.927Z,24.47
2017-11-16T19:55:14.448Z,29.10
2017-11-16T19:57:44.998Z,31.07
2017-11-16T20:00:13.301Z,30.90
2017-11-16T20:02:41.562Z,29.90
2017-11-16T20:05:09.834Z,29.33
2017-11-16T20:07:38.319Z,28.47
2017-11-16T20:10:06.618Z,35.40
2017-11-16T20:12:34.942Z,28.60
2017-11-16T20:15:04.003Z,30.37
2017-11-16T20:17:33.059Z,31.23
2017-11-16T20:20:01.375Z,31.37
2017-11-16T20:22:30.572Z,34.23
2017-11-16T20:25:00.372Z,35.53
2017-11-16T20:27:29.507Z,40.60
2017-11-16T20:29:58.538Z,33.63
2017-11-16T20:32:26.829Z,36.03
2017-11-16T20:34:55.180Z,37.27
2017-11-16T20:37:24.928Z,40.63
2017-11-16T20:39:58.889Z,43.60
2017-11-16T20:42:30.137Z,43.93
2017-11-16T20:45:05.755Z,34.77
2017-11-16T20:47:41.213Z,41.43
2017-11-16T20:53:08.376Z,41.00
2017-11-16T20:55:37.965Z,35.27
2017-11-16T20:58:07.949Z,43.13
2017-11-16T21:00:36.225Z,46.73
2017-11-16T21:03:04.741Z,47.07
2017-11-16T21:05:33.047Z,40.10
2017-11-16T21:08:01.389Z,43.03
2017-11-16T21:10:29.758Z,38.67
2017-11-16T21:12:58.055Z,36.80
2017-11-16T21:15:26.329Z,49.87
2017-11-16T21:17:54.679Z,43.20
2017-11-16T21:20:22.984Z,37.13
2017-11-16T21:22:51.513Z,45.90
2017-11-16T21:25:20.561Z,40.37
2017-11-16T21:27:50.145Z,43.93
2017-11-16T21:30:18.444Z,43.70
2017-11-16T21:32:46.749Z,43.90
2017-11-16T21:35:15.039Z,42.30
2017-11-16T21:37:43.296Z,45.13
2017-11-16T21:40:11.580Z,44.50
2017-11-16T21:42:39.857Z,41.63
2017-11-16T21:45:08.141Z,39.67
2017-11-16T21:47:36.429Z,39.63
2017-11-16T21:50:04.706Z,41.33
2017-11-16T21:52:32.976Z,37.70
2017-11-16T21:55:02.070Z,38.40
2017-11-16T21:57:30.359Z,47.00
2017-11-16T21:59:58.645Z,41.57
2017-11-16T22:02:26.913Z,47.97
2017-11-16T22:04:56.144Z,49.10
2017-11-16T22:07:24.436Z,48.13
2017-11-16T22:09:52.712Z,55.17
2017-11-16T22:12:21.121Z,46.40
2017-11-16T22:14:50.189Z,41.23
2017-11-16T22:17:18.444Z,56.47
2017-11-16T22:19:46.734Z,48.07
2017-11-16T22:22:14.997Z,40.13
2017-11-16T22:24:43.279Z,50.50
2017-11-16T22:27:11.582Z,53.33
2017-11-16T22:29:40.615Z,52.80
2017-11-16T22:32:08.895Z,46.27
2017-11-16T22:34:37.320Z,46.40
2017-11-16T22:37:05.620Z,44.20
2017-11-16T22:39:33.899Z,49.10
2017-11-16T22:42:02.217Z,49.60
2017-11-16T22:44:30.521Z,47.27
2017-11-16T22:46:58.791Z,47.23
2017-11-16T22:49:27.102Z,49.87
2017-11-16T22:51:55.394Z,47.30
2017-11-16T22:54:23.655Z,46.20
2017-11-16T22:56:52.163Z,47.93
2017-11-16T22:59:20.450Z,51.33
2017-11-16T23:01:50.646Z,55.10
2017-11-16T23:04:18.937Z,42.57
2017-11-16T23:06:48.129Z,48.43
2017-11-16T23:09:17.280Z,45.90
2017-11-16T23:11:47.678Z,50.47
2017-11-16T23:14:18.526Z,48.77
2017-11-16T23:16:46.822Z,48.53
2017-11-16T23:19:17.483Z,46.47
2017-11-16T23:21:45.758Z,48.37
2017-11-16T23:24:15.033Z,53.17
2017-11-16T23:26:44.558Z,46.93
2017-11-16T23:29:12.865Z,43.77
2017-11-16T23:31:41.162Z,48.93
2017-11-16T23:34:10.605Z,50.00
2017-11-16T23:36:39.666Z,44.13
2017-11-16T23:39:09.774Z,45.50
2017-11-16T23:41:38.067Z,48.33
2017-11-16T23:44:06.321Z,53.83
2017-11-16T23:46:34.632Z,47.33
2017-11-16T23:49:02.899Z,50.40
2017-11-16T23:51:31.775Z,38.57
2017-11-16T23:54:00.023Z,44.83
2017-11-16T23:56:28.333Z,44.20
2017-11-16T23:58:57.402Z,48.87
